createdAt,value
2023-05-01T00:01:16.584Z,100785.66
2023-05-01T00:03:43.484Z,100783.75
2023-05-01T00:06:10.313Z,100777.44
2023-05-01T00:08:37.030Z,100781.63
2023-05-01T00:11:04.643Z,100788.09
2023-05-01T00:13:32.376Z,100789.25
2023-05-01T00:15:59.177Z,100776.25
2023-05-01T00:18:25.983Z,100783.16
2023-05-01T00:20:52.598Z,100793.69
2023-05-01T00:23:19.287Z,100786.75
2023-05-01T00:25:45.954Z,100799.88
2023-05-01T00:28:12.896Z,100795.22
2023-05-01T00:30:39.507Z,100792.97
2023-05-01T00:33:06.213Z,100785.28
2023-05-01T00:35:32.932Z,100792.19
2023-05-01T00:37:59.570Z,100783.66
2023-05-01T00:40:26.171Z,100792.25
2023-05-01T00:42:52.815Z,100791.16
2023-05-01T00:45:19.705Z,100790.88
2023-05-01T00:47:47.073Z,100793.09
2023-05-01T00:50:14.229Z,100798.09
2023-05-01T00:52:41.115Z,100795.75
2023-05-01T00:55:08.451Z,100795.75
2023-05-01T00:57:35.112Z,100794.66
2023-05-01T01:00:01.771Z,100792.72
2023-05-01T01:02:28.521Z,100798.00
2023-05-01T01:04:55.452Z,100795.00
2023-05-01T01:07:45.703Z,100791.16
2023-05-01T01:10:35.496Z,100797.22
2023-05-01T01:13:09.321Z,100799.47
2023-05-01T01:15:44.303Z,100799.22
2023-05-01T01:18:23.659Z,100798.94
2023-05-01T01:20:58.775Z,100812.22
2023-05-01T01:23:37.097Z,100806.47
2023-05-01T01:26:13.904Z,100803.72
2023-05-01T01:29:02.030Z,100812.88
2023-05-01T01:31:53.820Z,100817.00
2023-05-01T01:34:41.945Z,100802.09
2023-05-01T01:37:17.446Z,100800.75
2023-05-01T01:39:52.994Z,100798.03
2023-05-01T01:42:25.392Z,100804.13
2023-05-01T01:44:54.549Z,100807.47
2023-05-01T01:47:24.616Z,100806.91
2023-05-01T01:49:53.861Z,100813.25
2023-05-01T01:52:24.004Z,100810.56
2023-05-01T01:54:54.997Z,100809.47
2023-05-01T01:57:23.836Z,100804.78
2023-05-01T01:59:51.496Z,100803.94
2023-05-01T02:02:20.651Z,100808.13
2023-05-01T02:04:49.538Z,100807.84
2023-05-01T02:07:17.610Z,100804.28
2023-05-01T02:09:46.250Z,100805.38
2023-05-01T02:12:15.763Z,100808.72
2023-05-01T02:14:44.399Z,100802.66
2023-05-01T02:17:11.732Z,100797.41
2023-05-01T02:19:39.155Z,100803.78
2023-05-01T02:22:07.389Z,100794.41
2023-05-01T02:24:35.944Z,100799.06
2023-05-01T02:27:15.612Z,100803.81
2023-05-01T02:29:42.377Z,100802.72
2023-05-01T02:32:09.179Z,100809.91
2023-05-01T02:34:35.922Z,100801.34
2023-05-01T02:37:08.082Z,100793.91
2023-05-01T02:39:35.215Z,100808.84
2023-05-01T02:42:03.412Z,100803.31
2023-05-01T02:44:37.670Z,100804.41
2023-05-01T02:47:07.195Z,100800.00
2023-05-01T02:49:34.600Z,100813.28
2023-05-01T02:52:02.835Z,100802.22
2023-05-01T02:54:30.981Z,100811.59
2023-05-01T02:56:57.631Z,100806.63
2023-05-01T02:59:24.372Z,100804.44
2023-05-01T03:01:51.508Z,100806.38
2023-05-01T03:04:18.186Z,100805.53
2023-05-01T03:06:45.095Z,100804.16
2023-05-01T03:09:11.868Z,100808.00
2023-05-01T03:11:38.529Z,100810.22
2023-05-01T03:14:05.168Z,100808.81
2023-05-01T03:16:32.052Z,100814.66
2023-05-01T03:18:58.761Z,100813.28
2023-05-01T03:21:25.443Z,100825.41
2023-05-01T03:23:52.070Z,100818.50
2023-05-01T03:26:18.650Z,100818.81
2023-05-01T03:28:48.169Z,100819.38
2023-05-01T03:31:14.794Z,100812.72
2023-05-01T03:33:41.413Z,100825.72
2023-05-01T03:36:08.181Z,100824.34
2023-05-01T03:38:34.797Z,100821.56
2023-05-01T03:41:01.456Z,100819.38
2023-05-01T03:43:30.649Z,100816.59
2023-05-01T03:45:57.619Z,100817.69
2023-05-01T03:48:24.570Z,100822.13
2023-05-01T03:50:54.211Z,100817.94
2023-05-01T03:53:20.966Z,100821.56
2023-05-01T03:55:47.656Z,100825.66
2023-05-01T03:58:14.417Z,100825.41
2023-05-01T04:00:41.006Z,100827.03
2023-05-01T04:03:07.815Z,100823.72
2023-05-01T04:05:34.689Z,100838.06
2023-05-01T04:08:01.272Z,100835.81
2023-05-01T04:10:27.945Z,100840.00
2023-05-01T04:12:54.727Z,100836.06
2023-05-01T04:15:21.356Z,100835.78
2023-05-01T04:17:48.379Z,100833.84
2023-05-01T04:20:15.305Z,100834.09
2023-05-01T04:22:41.939Z,100844.56
2023-05-01T04:25:09.069Z,100841.00
2023-05-01T04:27:35.719Z,100841.75
2023-05-01T04:30:02.415Z,100841.69
2023-05-01T04:32:29.092Z,100838.38
2023-05-01T04:34:55.925Z,100844.44
2023-05-01T04:37:22.561Z,100849.34
2023-05-01T04:39:49.237Z,100841.31
2023-05-01T04:42:15.880Z,100841.53
2023-05-01T04:44:42.502Z,100847.19
2023-05-01T04:47:09.413Z,100847.56
2023-05-01T04:49:36.189Z,100842.75
2023-05-01T04:52:03.119Z,100843.78
2023-05-01T04:54:29.743Z,100847.19
2023-05-01T04:56:56.380Z,100845.25
2023-05-01T04:59:22.992Z,100840.22
2023-05-01T05:01:49.687Z,100834.38
2023-05-01T05:04:16.425Z,100821.88
2023-05-01T05:06:43.193Z,100826.94
2023-05-01T05:09:09.808Z,100836.69
2023-05-01T05:11:36.457Z,100841.69
2023-05-01T05:14:03.100Z,100842.88
2023-05-01T05:16:30.060Z,100840.34
2023-05-01T05:18:56.747Z,100841.59
2023-05-01T05:21:23.515Z,100837.22
2023-05-01T05:23:50.281Z,100843.91
2023-05-01T05:26:17.023Z,100845.88
2023-05-01T05:28:43.732Z,100855.09
2023-05-01T05:31:10.373Z,100860.53
2023-05-01T05:33:37.148Z,100848.31
2023-05-01T05:36:03.943Z,100855.22
2023-05-01T05:38:30.628Z,100848.03
2023-05-01T05:40:57.301Z,100855.38
2023-05-01T05:43:26.025Z,100853.81
2023-05-01T05:45:58.115Z,100861.78
2023-05-01T05:48:25.283Z,100871.06
2023-05-01T05:50:51.908Z,100877.00
2023-05-01T05:53:23.584Z,100880.59
2023-05-01T05:55:51.721Z,100883.38
2023-05-01T05:58:19.588Z,100879.72
2023-05-01T06:00:47.454Z,100890.47
2023-05-01T06:03:14.823Z,100891.56
2023-05-01T06:05:42.726Z,100889.97
2023-05-01T06:08:09.724Z,100902.19
2023-05-01T06:10:36.791Z,100894.88
2023-05-01T06:13:14.004Z,100881.41
2023-05-01T06:15:41.956Z,100880.59
2023-05-01T06:18:08.955Z,100882.41
2023-05-01T06:20:36.301Z,100892.97
2023-05-01T06:23:02.951Z,100888.22
2023-05-01T06:25:29.626Z,100886.06
2023-05-01T06:27:56.324Z,100893.81
2023-05-01T06:30:22.949Z,100900.16
2023-05-01T06:32:49.743Z,100899.69
2023-05-01T06:35:19.274Z,100893.78
2023-05-01T06:37:46.139Z,100892.06
2023-05-01T06:40:12.983Z,100897.09
2023-05-01T06:42:40.403Z,100891.41
2023-05-01T06:45:08.166Z,100886.84
2023-05-01T06:47:34.976Z,100885.78
2023-05-01T06:50:05.078Z,100876.66
2023-05-01T06:52:32.738Z,100884.13
2023-05-01T06:54:59.336Z,100887.59
2023-05-01T06:57:26.037Z,100877.00
2023-05-01T06:59:52.711Z,100885.78
2023-05-01T07:02:19.601Z,100898.19
2023-05-01T07:04:49.127Z,100889.91
2023-05-01T07:07:15.756Z,100894.03
2023-05-01T07:09:42.446Z,100891.78
2023-05-01T07:12:09.296Z,100892.13
2023-05-01T07:14:36.180Z,100905.91
2023-05-01T07:17:04.858Z,100905.88
2023-05-01T07:19:31.539Z,100906.84
2023-05-01T07:21:58.198Z,100907.28
2023-05-01T07:24:24.960Z,100905.91
2023-05-01T07:26:51.648Z,100901.78
2023-05-01T07:29:18.347Z,100912.50
2023-05-01T07:31:46.487Z,100899.22
2023-05-01T07:34:13.166Z,100907.28
2023-05-01T07:36:39.887Z,100894.09
2023-05-01T07:39:06.714Z,100905.06
2023-05-01T07:41:33.392Z,100898.31
2023-05-01T07:44:00.110Z,100898.47
2023-05-01T07:46:26.929Z,100893.56
2023-05-01T07:48:53.615Z,100896.78
2023-05-01T07:51:20.301Z,100893.16
2023-05-01T07:53:47.078Z,100898.63
2023-05-01T07:56:13.771Z,100897.94
2023-05-01T07:58:40.461Z,100901.78
2023-05-01T08:01:07.203Z,100897.41
2023-05-01T08:03:34.066Z,100902.41
2023-05-01T08:06:01.021Z,100899.75
2023-05-01T08:08:27.702Z,100903.81
2023-05-01T08:10:54.427Z,100895.78
2023-05-01T08:13:21.078Z,100894.03
2023-05-01T08:15:48.155Z,100898.22
2023-05-01T08:18:15.295Z,100898.19
2023-05-01T08:20:41.872Z,100892.56
2023-05-01T08:23:08.513Z,100889.31
2023-05-01T08:25:35.202Z,100889.78
2023-05-01T08:28:02.014Z,100894.75
2023-05-01T08:30:28.750Z,100892.50
2023-05-01T08:32:55.387Z,100896.28
2023-05-01T08:35:22.022Z,100903.41
2023-05-01T08:37:48.748Z,100899.50
2023-05-01T08:40:15.579Z,100894.56
2023-05-01T08:42:42.790Z,100895.78
2023-05-01T08:45:10.589Z,100897.81
2023-05-01T08:47:39.254Z,100898.03
2023-05-01T08:50:17.566Z,100887.06
2023-05-01T08:52:44.676Z,100897.41
2023-05-01T08:55:15.263Z,100892.28
2023-05-01T08:57:46.047Z,100902.34
2023-05-01T09:00:18.586Z,100895.22
2023-05-01T09:02:48.556Z,100894.28
2023-05-01T09:05:20.132Z,100896.59
2023-05-01T09:07:48.473Z,100893.97
2023-05-01T09:10:18.731Z,100899.38
2023-05-01T09:12:49.333Z,100894.13
2023-05-01T09:15:16.127Z,100895.13
2023-05-01T09:17:44.343Z,100899.81
2023-05-01T09:20:11.601Z,100890.88
2023-05-01T09:22:40.850Z,100881.09
2023-05-01T09:25:07.927Z,100872.66
2023-05-01T09:27:35.558Z,100879.88
2023-05-01T09:30:02.239Z,100877.34
2023-05-01T09:32:29.253Z,100875.00
2023-05-01T09:35:09.925Z,100879.44
2023-05-01T09:37:36.889Z,100885.78
2023-05-01T09:40:14.651Z,100880.50
2023-05-01T09:42:50.511Z,100878.53
2023-05-01T09:45:18.044Z,100873.59
2023-05-01T09:47:48.664Z,100870.19
2023-05-01T09:50:34.773Z,100864.44
2023-05-01T09:53:02.316Z,100869.13
2023-05-01T09:55:28.991Z,100869.03
2023-05-01T09:57:55.696Z,100866.69
2023-05-01T10:00:22.672Z,100866.34
2023-05-01T10:02:50.753Z,100859.16
2023-05-01T10:05:18.982Z,100856.56
2023-05-01T10:08:14.662Z,100851.94
2023-05-01T10:10:42.127Z,100858.56
2023-05-01T10:13:16.612Z,100864.41
2023-05-01T10:15:45.029Z,100854.81
2023-05-01T10:18:11.832Z,100861.03
2023-05-01T10:20:38.707Z,100857.75
2023-05-01T10:23:05.612Z,100860.81
2023-05-01T10:25:33.035Z,100854.84
2023-05-01T10:28:03.055Z,100860.38
2023-05-01T10:30:30.438Z,100863.66
2023-05-01T10:32:59.142Z,100860.38
2023-05-01T10:35:30.034Z,100849.44
2023-05-01T10:38:07.739Z,100853.41
2023-05-01T10:40:40.226Z,100851.00
2023-05-01T10:43:17.476Z,100845.13
2023-05-01T10:45:45.636Z,100846.09
2023-05-01T10:48:12.876Z,100848.31
2023-05-01T10:51:11.481Z,100840.56
2023-05-01T10:53:40.604Z,100842.16
2023-05-01T10:56:22.379Z,100845.09
2023-05-01T10:58:58.072Z,100836.06
2023-05-01T11:01:28.674Z,100833.75
2023-05-01T11:03:56.091Z,100837.00
2023-05-01T11:06:23.138Z,100833.00
2023-05-01T11:08:50.047Z,100836.47
2023-05-01T11:11:19.721Z,100841.16
2023-05-01T11:14:02.701Z,100838.72
2023-05-01T11:16:38.566Z,100830.41
2023-05-01T11:19:32.012Z,100835.59
2023-05-01T11:21:58.923Z,100828.09
2023-05-01T11:24:36.994Z,100831.59
2023-05-01T11:27:04.281Z,100829.63
2023-05-01T11:29:32.075Z,100835.34
2023-05-01T11:32:00.362Z,100822.34
2023-05-01T11:34:27.208Z,100825.13
2023-05-01T11:36:54.122Z,100817.00
2023-05-01T11:39:20.954Z,100811.63
2023-05-01T11:41:47.713Z,100801.25
2023-05-01T11:44:17.217Z,100807.00
2023-05-01T11:46:44.408Z,100797.00
2023-05-01T11:49:11.672Z,100806.28
2023-05-01T11:51:38.662Z,100801.97
2023-05-01T11:54:07.913Z,100805.06
2023-05-01T11:56:35.723Z,100799.09
2023-05-01T11:59:16.743Z,100789.72
2023-05-01T12:01:47.266Z,100795.72
2023-05-01T12:04:24.413Z,100796.63
2023-05-01T12:06:51.549Z,100789.81
2023-05-01T12:09:20.655Z,100783.88
2023-05-01T12:11:51.907Z,100778.34
2023-05-01T12:14:20.169Z,100787.19
2023-05-01T12:16:47.486Z,100785.34
2023-05-01T12:19:15.762Z,100787.19
2023-05-01T12:21:42.633Z,100779.69
2023-05-01T12:24:14.248Z,100791.16
2023-05-01T12:26:44.022Z,100778.63
2023-05-01T12:29:11.292Z,100775.63
2023-05-01T12:31:46.870Z,100769.78
2023-05-01T12:34:15.817Z,100776.25
2023-05-01T12:36:42.574Z,100759.44
2023-05-01T12:39:11.301Z,100768.06
2023-05-01T12:41:42.416Z,100768.16
2023-05-01T12:44:31.222Z,100772.56
2023-05-01T12:47:02.833Z,100769.25
2023-05-01T12:49:33.224Z,100763.34
2023-05-01T12:52:03.602Z,100769.25
2023-05-01T12:54:32.912Z,100761.53
2023-05-01T12:57:13.832Z,100759.69
2023-05-01T12:59:42.441Z,100756.53
2023-05-01T13:02:14.407Z,100758.78
2023-05-01T13:04:43.072Z,100753.94
2023-05-01T13:07:17.804Z,100755.69
2023-05-01T13:10:10.855Z,100750.00
2023-05-01T13:12:44.780Z,100743.47
2023-05-01T13:15:24.155Z,100738.78
2023-05-01T13:17:50.949Z,100737.34
2023-05-01T13:20:25.992Z,100732.88
2023-05-01T13:22:52.783Z,100727.19
2023-05-01T13:25:20.233Z,100738.78
2023-05-01T13:27:51.386Z,100731.47
2023-05-01T13:30:31.783Z,100731.19
2023-05-01T13:33:00.533Z,100725.63
2023-05-01T13:35:27.697Z,100726.44
2023-05-01T13:37:54.921Z,100723.34
2023-05-01T13:40:24.960Z,100717.06
2023-05-01T13:42:52.576Z,100722.78
2023-05-01T13:45:25.914Z,100720.47
2023-05-01T13:47:54.176Z,100717.38
2023-05-01T13:50:21.191Z,100717.56
2023-05-01T13:52:47.945Z,100708.91
2023-05-01T13:55:14.839Z,100713.72
2023-05-01T13:57:42.079Z,100716.97
2023-05-01T14:00:13.162Z,100706.28
2023-05-01T14:02:45.158Z,100711.19
2023-05-01T14:05:11.951Z,100704.38
2023-05-01T14:07:56.502Z,100698.13
2023-05-01T14:10:27.760Z,100702.88
2023-05-01T14:12:58.675Z,100708.66
2023-05-01T14:15:25.787Z,100704.06
2023-05-01T14:17:52.556Z,100707.47
2023-05-01T14:20:19.458Z,100703.63
2023-05-01T14:22:49.540Z,100702.59
2023-05-01T14:25:25.334Z,100697.75
2023-05-01T14:27:56.138Z,100693.66
2023-05-01T14:30:30.689Z,100686.56
2023-05-01T14:32:57.410Z,100693.31
2023-05-01T14:35:24.873Z,100686.53
2023-05-01T14:37:51.562Z,100688.19
2023-05-01T14:40:21.433Z,100679.66
2023-05-01T14:42:48.036Z,100686.84
2023-05-01T14:45:15.980Z,100687.28
2023-05-01T14:47:45.718Z,100685.13
2023-05-01T14:50:18.323Z,100683.94
2023-05-01T14:52:45.328Z,100684.16
2023-05-01T14:55:12.121Z,100691.88
2023-05-01T14:57:39.107Z,100685.72
2023-05-01T15:00:06.220Z,100688.53
2023-05-01T15:02:33.187Z,100683.28
2023-05-01T15:05:00.650Z,100686.97
2023-05-01T15:07:27.524Z,100678.50
2023-05-01T15:09:54.194Z,100686.84
2023-05-01T15:12:20.814Z,100681.03
2023-05-01T15:14:47.463Z,100669.63
2023-05-01T15:17:14.083Z,100664.25
2023-05-01T15:19:40.718Z,100670.50
2023-05-01T15:22:07.390Z,100673.47
2023-05-01T15:24:34.056Z,100663.69
2023-05-01T15:27:03.801Z,100662.31
2023-05-01T15:29:31.814Z,100659.00
2023-05-01T15:32:10.793Z,100659.59
2023-05-01T15:34:38.937Z,100656.91
2023-05-01T15:37:05.858Z,100652.41
2023-05-01T15:39:33.792Z,100650.63
2023-05-01T15:42:00.598Z,100652.81
2023-05-01T15:44:27.273Z,100655.03
2023-05-01T15:46:54.004Z,100654.84
2023-05-01T15:51:47.314Z,100642.25
2023-05-01T15:54:14.108Z,100645.59
2023-05-01T15:56:40.785Z,100653.66
2023-05-01T15:59:07.847Z,100638.78
2023-05-01T16:01:35.538Z,100642.41
2023-05-01T16:04:03.701Z,100638.97
2023-05-01T16:06:34.978Z,100646.59
2023-05-01T16:09:02.421Z,100649.03
2023-05-01T16:11:30.622Z,100641.44
2023-05-01T16:14:00.845Z,100650.09
2023-05-01T16:16:29.083Z,100639.47
2023-05-01T16:18:59.603Z,100638.28
2023-05-01T16:21:27.142Z,100642.59
2023-05-01T16:23:57.404Z,100635.75
2023-05-01T16:26:29.194Z,100642.28
2023-05-01T16:29:00.189Z,100645.56
2023-05-01T16:31:28.015Z,100638.56
2023-05-01T16:33:55.027Z,100638.13
2023-05-01T16:36:21.746Z,100633.47
2023-05-01T16:38:48.370Z,100642.50
2023-05-01T16:41:16.350Z,100639.94
2023-05-01T16:43:44.378Z,100643.31
2023-05-01T16:46:13.229Z,100639.09
2023-05-01T16:48:42.018Z,100645.84
2023-05-01T16:51:09.724Z,100645.06
2023-05-01T16:53:36.458Z,100649.69
2023-05-01T16:56:06.592Z,100651.03
2023-05-01T16:58:36.488Z,100648.41
2023-05-01T17:01:03.105Z,100650.56
2023-05-01T17:03:29.730Z,100641.34
2023-05-01T17:05:56.428Z,100644.31
2023-05-01T17:08:23.187Z,100640.84
2023-05-01T17:10:49.779Z,100641.41
2023-05-01T17:13:16.376Z,100639.56
2023-05-01T17:15:43.048Z,100638.63
2023-05-01T17:18:09.786Z,100639.59
2023-05-01T17:20:36.615Z,100641.94
2023-05-01T17:23:03.290Z,100642.94
2023-05-01T17:25:29.974Z,100639.19
2023-05-01T17:27:56.678Z,100638.25
2023-05-01T17:30:23.306Z,100640.81
2023-05-01T17:32:50.059Z,100645.03
2023-05-01T17:35:16.794Z,100640.38
2023-05-01T17:37:43.503Z,100642.13
2023-05-01T17:40:10.598Z,100639.38
2023-05-01T17:42:37.254Z,100640.78
2023-05-01T17:45:04.914Z,100638.47
2023-05-01T17:47:31.598Z,100643.47
2023-05-01T17:49:58.521Z,100645.69
2023-05-01T17:52:25.253Z,100649.06
2023-05-01T17:54:52.034Z,100648.13
2023-05-01T17:57:18.650Z,100654.31
2023-05-01T17:59:45.310Z,100651.25
2023-05-01T18:02:12.165Z,100655.91
2023-05-01T18:04:38.803Z,100651.56
2023-05-01T18:07:05.600Z,100655.25
2023-05-01T18:09:32.227Z,100657.13
2023-05-01T18:11:58.851Z,100662.00
2023-05-01T18:14:25.604Z,100654.28
2023-05-01T18:16:52.275Z,100665.06
2023-05-01T18:19:19.065Z,100666.63
2023-05-01T18:21:45.742Z,100656.31
2023-05-01T18:24:12.394Z,100655.69
2023-05-01T18:26:39.112Z,100673.66
2023-05-01T18:29:05.771Z,100666.75
2023-05-01T18:31:32.583Z,100667.91
2023-05-01T18:33:59.465Z,100667.78
2023-05-01T18:36:26.094Z,100665.84
2023-05-01T18:38:52.722Z,100670.38
2023-05-01T18:41:19.344Z,100681.75
2023-05-01T18:43:46.020Z,100676.84
2023-05-01T18:46:12.796Z,100681.88
2023-05-01T18:48:39.442Z,100682.56
2023-05-01T18:51:08.980Z,100678.47
2023-05-01T18:53:36.289Z,100683.09
2023-05-01T18:56:03.030Z,100685.56
2023-05-01T18:58:29.792Z,100684.72
2023-05-01T19:00:56.394Z,100687.06
2023-05-01T19:03:23.098Z,100692.47
2023-05-01T19:05:49.797Z,100684.97
2023-05-01T19:08:16.560Z,100690.56
2023-05-01T19:10:43.272Z,100695.34
2023-05-01T19:13:09.957Z,100689.63
2023-05-01T19:15:36.561Z,100699.84
2023-05-01T19:18:03.350Z,100696.41
2023-05-01T19:20:30.022Z,100698.22
2023-05-01T19:22:56.690Z,100708.06
2023-05-01T19:25:24.163Z,100699.38
2023-05-01T19:27:50.860Z,100693.31
2023-05-01T19:30:17.520Z,100697.56
2023-05-01T19:32:45.581Z,100693.97
2023-05-01T19:35:12.376Z,100694.28
2023-05-01T19:37:39.151Z,100690.84
2023-05-01T19:40:06.736Z,100685.09
2023-05-01T19:42:33.458Z,100687.59
2023-05-01T19:45:00.172Z,100689.22
2023-05-01T19:47:26.952Z,100691.84
2023-05-01T19:49:53.690Z,100691.50
2023-05-01T19:52:20.430Z,100691.03
2023-05-01T19:54:47.231Z,100688.41
2023-05-01T19:57:14.041Z,100680.50
2023-05-01T19:59:40.677Z,100683.63
2023-05-01T20:02:07.419Z,100677.06
2023-05-01T20:07:00.803Z,100678.88
2023-05-01T20:09:27.468Z,100677.06
2023-05-01T20:11:54.218Z,100676.84
2023-05-01T20:14:20.909Z,100676.69
2023-05-01T20:16:50.095Z,100683.09
2023-05-01T20:19:16.787Z,100668.31
2023-05-01T20:21:43.547Z,100679.50
2023-05-01T20:24:10.172Z,100677.00
2023-05-01T20:26:37.024Z,100689.19
2023-05-01T20:29:03.668Z,100684.06
2023-05-01T20:31:30.476Z,100691.09
2023-05-01T20:33:57.107Z,100684.22
2023-05-01T20:36:25.369Z,100685.19
2023-05-01T20:38:52.194Z,100684.38
2023-05-01T20:41:18.905Z,100683.84
2023-05-01T20:43:45.559Z,100685.69
2023-05-01T20:46:12.253Z,100683.38
2023-05-01T20:48:38.978Z,100687.31
2023-05-01T20:51:05.611Z,100693.41
2023-05-01T20:53:32.317Z,100688.63
2023-05-01T20:55:59.092Z,100682.53
2023-05-01T20:58:25.785Z,100683.66
2023-05-01T21:00:55.612Z,100690.34
2023-05-01T21:03:22.518Z,100692.16
2023-05-01T21:05:49.325Z,100695.63
2023-05-01T21:08:16.058Z,100691.78
2023-05-01T21:10:42.747Z,100692.97
2023-05-01T21:13:09.417Z,100694.44
2023-05-01T21:15:36.037Z,100689.38
2023-05-01T21:18:02.785Z,100697.09
2023-05-01T21:20:32.730Z,100690.19
2023-05-01T21:23:00.483Z,100692.66
2023-05-01T21:25:28.840Z,100692.97
2023-05-01T21:27:56.411Z,100703.97
2023-05-01T21:30:33.711Z,100698.38
2023-05-01T21:33:21.311Z,100694.09
2023-05-01T21:35:48.458Z,100694.41
2023-05-01T21:38:16.161Z,100688.53
2023-05-01T21:40:43.171Z,100692.78
2023-05-01T21:43:09.974Z,100692.44
2023-05-01T21:45:37.027Z,100690.94
2023-05-01T21:48:03.823Z,100688.66
2023-05-01T21:50:34.965Z,100694.75
2023-05-01T21:53:02.213Z,100691.44
2023-05-01T21:55:28.885Z,100700.94
2023-05-01T21:57:55.550Z,100692.22
2023-05-01T22:00:22.309Z,100697.16
2023-05-01T22:02:50.337Z,100697.47
2023-05-01T22:05:21.293Z,100693.72
2023-05-01T22:07:48.876Z,100695.53
2023-05-01T22:10:17.593Z,100702.09
2023-05-01T22:12:45.156Z,100694.75
2023-05-01T22:15:13.396Z,100704.72
2023-05-01T22:17:40.834Z,100699.13
2023-05-01T22:20:08.424Z,100697.81
2023-05-01T22:22:36.050Z,100695.53
2023-05-01T22:25:03.265Z,100697.28
2023-05-01T22:27:30.193Z,100702.06
2023-05-01T22:29:57.248Z,100700.38
2023-05-01T22:32:24.357Z,100707.28
2023-05-01T22:34:51.034Z,100702.28
2023-05-01T22:37:17.885Z,100699.84
2023-05-01T22:39:44.539Z,100701.00
2023-05-01T22:42:11.198Z,100698.00
2023-05-01T22:44:37.906Z,100694.53
2023-05-01T22:47:04.563Z,100697.31
2023-05-01T22:49:31.181Z,100703.53
2023-05-01T22:51:58.574Z,100698.28
2023-05-01T22:54:25.318Z,100697.09
2023-05-01T22:56:52.110Z,100702.66
2023-05-01T22:59:19.642Z,100698.72
2023-05-01T23:01:46.455Z,100699.00
2023-05-01T23:04:13.916Z,100691.47
2023-05-01T23:06:41.086Z,100697.50
2023-05-01T23:09:07.769Z,100693.66
2023-05-01T23:11:34.851Z,100689.06
2023-05-01T23:14:01.877Z,100686.72
2023-05-01T23:16:36.355Z,100690.66
2023-05-01T23:19:03.686Z,100681.47
2023-05-01T23:21:30.475Z,100689.75
2023-05-01T23:23:57.281Z,100685.13
2023-05-01T23:26:25.950Z,100676.88
2023-05-01T23:28:53.445Z,100689.81
2023-05-01T23:31:25.509Z,100686.59
2023-05-01T23:33:52.786Z,100683.91
2023-05-01T23:36:20.425Z,100678.78
2023-05-01T23:38:47.376Z,100677.56
2023-05-01T23:41:14.919Z,100688.28
2023-05-01T23:43:41.918Z,100681.38
2023-05-01T23:46:08.765Z,100682.94
2023-05-01T23:48:36.261Z,100683.59
2023-05-01T23:51:03.522Z,100684.50
2023-05-01T23:53:30.528Z,100694.75
2023-05-01T23:55:57.314Z,100691.16
2023-05-01T23:58:24.282Z,100693.41
